sensor_id;sensor_type;location;lat;lon;timestamp;P1;durP1;ratioP1;P2;durP2;ratioP2
1054;SDS011;516;51.482;7.120;2024-01-25T00:01:28;7.70;;;4.77;;
1054;SDS011;516;51.482;7.120;2024-01-25T00:03:54;5.93;;;5.33;;
1054;SDS011;516;51.482;7.120;2024-01-25T00:06:20;6.27;;;4.40;;
1054;SDS011;516;51.482;7.120;2024-01-25T00:08:46;6.00;;;4.60;;
1054;SDS011;516;51.482;7.120;2024-01-25T00:11:12;9.27;;;5.40;;
1054;SDS011;516;51.482;7.120;2024-01-25T00:13:37;7.87;;;5.17;;
1054;SDS011;516;51.482;7.120;2024-01-25T00:16:04;9.97;;;5.30;;
1054;SDS011;516;51.482;7.120;2024-01-25T00:18:29;7.20;;;4.90;;
1054;SDS011;516;51.482;7.120;2024-01-25T00:20:55;6.05;;;5.00;;
1054;SDS011;516;51.482;7.120;2024-01-25T00:23:21;5.90;;;4.07;;
1054;SDS011;516;51.482;7.120;2024-01-25T00:25:47;9.67;;;5.37;;
1054;SDS011;516;51.482;7.120;2024-01-25T00:28:12;7.73;;;4.93;;
1054;SDS011;516;51.482;7.120;2024-01-25T00:30:38;6.70;;;4.47;;
1054;SDS011;516;51.482;7.120;2024-01-25T00:33:04;8.67;;;4.90;;
1054;SDS011;516;51.482;7.120;2024-01-25T00:35:30;7.73;;;4.07;;
1054;SDS011;516;51.482;7.120;2024-01-25T00:37:56;4.10;;;3.27;;
1054;SDS011;516;51.482;7.120;2024-01-25T00:40:22;6.70;;;4.97;;
1054;SDS011;516;51.482;7.120;2024-01-25T00:42:48;6.00;;;4.40;;
1054;SDS011;516;51.482;7.120;2024-01-25T00:45:18;6.47;;;3.73;;
1054;SDS011;516;51.482;7.120;2024-01-25T00:47:45;8.03;;;5.00;;
1054;SDS011;516;51.482;7.120;2024-01-25T00:50:11;7.93;;;4.43;;
1054;SDS011;516;51.482;7.120;2024-01-25T00:52:37;6.87;;;3.83;;
1054;SDS011;516;51.482;7.120;2024-01-25T00:55:03;7.40;;;4.47;;
1054;SDS011;516;51.482;7.120;2024-01-25T00:57:29;7.50;;;4.40;;
1054;SDS011;516;51.482;7.120;2024-01-25T00:59:55;8.17;;;4.63;;
1054;SDS011;516;51.482;7.120;2024-01-25T01:02:21;7.67;;;4.13;;
1054;SDS011;516;51.482;7.120;2024-01-25T01:04:47;8.67;;;5.20;;
1054;SDS011;516;51.482;7.120;2024-01-25T01:07:14;9.47;;;4.90;;
1054;SDS011;516;51.482;7.120;2024-01-25T01:09:40;7.80;;;4.13;;
1054;SDS011;516;51.482;7.120;2024-01-25T01:12:06;7.93;;;4.77;;
1054;SDS011;516;51.482;7.120;2024-01-25T01:14:32;8.47;;;3.90;;
1054;SDS011;516;51.482;7.120;2024-01-25T01:16:58;6.57;;;4.03;;
1054;SDS011;516;51.482;7.120;2024-01-25T01:19:23;6.87;;;3.83;;
1054;SDS011;516;51.482;7.120;2024-01-25T01:21:49;6.83;;;4.83;;
1054;SDS011;516;51.482;7.120;2024-01-25T01:24:15;10.73;;;4.97;;
1054;SDS011;516;51.482;7.120;2024-01-25T01:26:40;8.83;;;4.73;;
1054;SDS011;516;51.482;7.120;2024-01-25T01:29:09;6.10;;;4.17;;
1054;SDS011;516;51.482;7.120;2024-01-25T01:31:35;7.53;;;4.90;;
1054;SDS011;516;51.482;7.120;2024-01-25T01:34:00;10.03;;;5.10;;
1054;SDS011;516;51.482;7.120;2024-01-25T01:36:26;5.53;;;3.80;;
1054;SDS011;516;51.482;7.120;2024-01-25T01:38:52;6.73;;;4.23;;
1054;SDS011;516;51.482;7.120;2024-01-25T01:41:17;8.27;;;4.70;;
1054;SDS011;516;51.482;7.120;2024-01-25T01:43:43;7.17;;;4.13;;
1054;SDS011;516;51.482;7.120;2024-01-25T01:49:03;7.40;;;5.00;;
1054;SDS011;516;51.482;7.120;2024-01-25T01:51:29;7.70;;;4.40;;
1054;SDS011;516;51.482;7.120;2024-01-25T01:53:56;5.90;;;4.03;;
1054;SDS011;516;51.482;7.120;2024-01-25T01:56:23;6.40;;;3.60;;
1054;SDS011;516;51.482;7.120;2024-01-25T01:58:51;6.10;;;3.60;;
1054;SDS011;516;51.482;7.120;2024-01-25T02:01:18;6.23;;;4.40;;
1054;SDS011;516;51.482;7.120;2024-01-25T02:03:45;6.13;;;4.03;;
1054;SDS011;516;51.482;7.120;2024-01-25T02:06:10;8.10;;;4.33;;
1054;SDS011;516;51.482;7.120;2024-01-25T02:08:36;6.57;;;3.90;;
1054;SDS011;516;51.482;7.120;2024-01-25T02:11:02;5.80;;;4.03;;
1054;SDS011;516;51.482;7.120;2024-01-25T02:13:28;6.80;;;4.87;;
1054;SDS011;516;51.482;7.120;2024-01-25T02:15:53;5.03;;;3.70;;
1054;SDS011;516;51.482;7.120;2024-01-25T02:18:19;5.70;;;3.67;;
1054;SDS011;516;51.482;7.120;2024-01-25T02:20:45;5.83;;;3.50;;
1054;SDS011;516;51.482;7.120;2024-01-25T02:23:10;8.87;;;4.37;;
1054;SDS011;516;51.482;7.120;2024-01-25T02:25:36;12.43;;;4.90;;
1054;SDS011;516;51.482;7.120;2024-01-25T02:28:02;7.97;;;4.30;;
1054;SDS011;516;51.482;7.120;2024-01-25T02:30:27;6.20;;;4.03;;
1054;SDS011;516;51.482;7.120;2024-01-25T02:32:53;7.47;;;4.40;;
1054;SDS011;516;51.482;7.120;2024-01-25T02:35:19;8.63;;;4.50;;
1054;SDS011;516;51.482;7.120;2024-01-25T02:37:45;5.30;;;3.50;;
1054;SDS011;516;51.482;7.120;2024-01-25T02:40:11;6.17;;;4.93;;
1054;SDS011;516;51.482;7.120;2024-01-25T02:42:37;4.67;;;3.10;;
1054;SDS011;516;51.482;7.120;2024-01-25T02:45:03;7.37;;;4.10;;
1054;SDS011;516;51.482;7.120;2024-01-25T02:47:29;4.40;;;3.17;;
1054;SDS011;516;51.482;7.120;2024-01-25T02:49:54;5.77;;;3.97;;
1054;SDS011;516;51.482;7.120;2024-01-25T02:52:20;7.03;;;4.17;;
1054;SDS011;516;51.482;7.120;2024-01-25T02:54:46;6.70;;;4.17;;
1054;SDS011;516;51.482;7.120;2024-01-25T02:57:11;6.83;;;3.90;;
1054;SDS011;516;51.482;7.120;2024-01-25T02:59:37;6.67;;;4.20;;
1054;SDS011;516;51.482;7.120;2024-01-25T03:02:03;5.33;;;3.40;;
1054;SDS011;516;51.482;7.120;2024-01-25T03:04:28;7.20;;;4.50;;
1054;SDS011;516;51.482;7.120;2024-01-25T03:06:54;5.73;;;4.07;;
1054;SDS011;516;51.482;7.120;2024-01-25T03:09:20;5.67;;;3.30;;
1054;SDS011;516;51.482;7.120;2024-01-25T03:11:46;6.53;;;3.60;;
1054;SDS011;516;51.482;7.120;2024-01-25T03:14:12;5.67;;;3.87;;
1054;SDS011;516;51.482;7.120;2024-01-25T03:16:37;6.20;;;3.80;;
1054;SDS011;516;51.482;7.120;2024-01-25T03:19:03;7.07;;;3.73;;
1054;SDS011;516;51.482;7.120;2024-01-25T03:21:29;5.40;;;3.60;;
1054;SDS011;516;51.482;7.120;2024-01-25T03:23:54;5.23;;;3.30;;
1054;SDS011;516;51.482;7.120;2024-01-25T03:26:20;4.73;;;3.10;;
1054;SDS011;516;51.482;7.120;2024-01-25T03:28:45;5.57;;;4.13;;
1054;SDS011;516;51.482;7.120;2024-01-25T03:31:11;7.20;;;4.13;;
1054;SDS011;516;51.482;7.120;2024-01-25T03:33:37;5.20;;;3.40;;
1054;SDS011;516;51.482;7.120;2024-01-25T03:36:03;5.33;;;3.90;;
1054;SDS011;516;51.482;7.120;2024-01-25T03:38:29;6.67;;;4.10;;
1054;SDS011;516;51.482;7.120;2024-01-25T03:40:55;8.57;;;4.30;;
1054;SDS011;516;51.482;7.120;2024-01-25T03:43:24;5.73;;;3.77;;
1054;SDS011;516;51.482;7.120;2024-01-25T03:45:50;6.30;;;4.30;;
1054;SDS011;516;51.482;7.120;2024-01-25T03:48:16;7.27;;;3.67;;
1054;SDS011;516;51.482;7.120;2024-01-25T03:50:42;5.90;;;3.30;;
1054;SDS011;516;51.482;7.120;2024-01-25T03:53:08;4.23;;;3.03;;
1054;SDS011;516;51.482;7.120;2024-01-25T03:55:34;6.30;;;3.27;;
1054;SDS011;516;51.482;7.120;2024-01-25T03:57:59;5.57;;;3.27;;
1054;SDS011;516;51.482;7.120;2024-01-25T04:00:25;7.47;;;4.00;;
1054;SDS011;516;51.482;7.120;2024-01-25T04:02:51;5.90;;;4.27;;
1054;SDS011;516;51.482;7.120;2024-01-25T04:05:16;4.70;;;3.33;;
1054;SDS011;516;51.482;7.120;2024-01-25T04:07:42;6.47;;;3.10;;
1054;SDS011;516;51.482;7.120;2024-01-25T04:10:08;6.17;;;3.83;;
1054;SDS011;516;51.482;7.120;2024-01-25T04:12:34;6.90;;;3.60;;
1054;SDS011;516;51.482;7.120;2024-01-25T04:15:00;6.57;;;3.17;;
1054;SDS011;516;51.482;7.120;2024-01-25T04:17:25;5.27;;;2.90;;
1054;SDS011;516;51.482;7.120;2024-01-25T04:19:51;4.77;;;3.30;;
1054;SDS011;516;51.482;7.120;2024-01-25T04:22:17;4.93;;;3.23;;
1054;SDS011;516;51.482;7.120;2024-01-25T04:24:42;5.93;;;3.03;;
1054;SDS011;516;51.482;7.120;2024-01-25T04:27:09;5.80;;;3.90;;
1054;SDS011;516;51.482;7.120;2024-01-25T04:29:38;9.47;;;3.90;;
1054;SDS011;516;51.482;7.120;2024-01-25T04:32:08;8.53;;;3.60;;
1054;SDS011;516;51.482;7.120;2024-01-25T04:34:34;8.87;;;3.70;;
1054;SDS011;516;51.482;7.120;2024-01-25T04:37:01;7.43;;;3.17;;
1054;SDS011;516;51.482;7.120;2024-01-25T04:39:27;5.87;;;3.43;;
1054;SDS011;516;51.482;7.120;2024-01-25T04:41:52;4.77;;;3.40;;
1054;SDS011;516;51.482;7.120;2024-01-25T04:44:18;5.93;;;2.73;;
1054;SDS011;516;51.482;7.120;2024-01-25T04:46:44;5.80;;;3.70;;
1054;SDS011;516;51.482;7.120;2024-01-25T04:49:10;6.43;;;3.80;;
1054;SDS011;516;51.482;7.120;2024-01-25T04:51:36;3.97;;;3.23;;
1054;SDS011;516;51.482;7.120;2024-01-25T04:54:01;6.93;;;3.43;;
1054;SDS011;516;51.482;7.120;2024-01-25T04:56:27;5.70;;;3.10;;
1054;SDS011;516;51.482;7.120;2024-01-25T04:58:53;8.13;;;3.30;;
1054;SDS011;516;51.482;7.120;2024-01-25T05:01:19;6.10;;;3.47;;
1054;SDS011;516;51.482;7.120;2024-01-25T05:03:45;5.27;;;2.70;;
1054;SDS011;516;51.482;7.120;2024-01-25T05:06:10;4.40;;;3.10;;
1054;SDS011;516;51.482;7.120;2024-01-25T05:08:36;5.40;;;3.60;;
1054;SDS011;516;51.482;7.120;2024-01-25T05:11:02;5.53;;;3.07;;
1054;SDS011;516;51.482;7.120;2024-01-25T05:13:28;7.70;;;3.33;;
1054;SDS011;516;51.482;7.120;2024-01-25T05:15:54;6.23;;;2.60;;
1054;SDS011;516;51.482;7.120;2024-01-25T05:18:19;7.97;;;3.30;;
1054;SDS011;516;51.482;7.120;2024-01-25T05:20:45;6.93;;;2.43;;
1054;SDS011;516;51.482;7.120;2024-01-25T05:23:11;5.23;;;2.80;;
1054;SDS011;516;51.482;7.120;2024-01-25T05:25:36;6.40;;;3.00;;
1054;SDS011;516;51.482;7.120;2024-01-25T05:28:02;6.50;;;3.10;;
1054;SDS011;516;51.482;7.120;2024-01-25T05:30:28;7.10;;;2.80;;
1054;SDS011;516;51.482;7.120;2024-01-25T05:32:54;7.20;;;3.37;;
1054;SDS011;516;51.482;7.120;2024-01-25T05:35:20;5.00;;;2.50;;
1054;SDS011;516;51.482;7.120;2024-01-25T05:37:46;5.80;;;3.00;;
1054;SDS011;516;51.482;7.120;2024-01-25T05:40:11;3.83;;;2.20;;
1054;SDS011;516;51.482;7.120;2024-01-25T05:42:38;7.27;;;2.87;;
1054;SDS011;516;51.482;7.120;2024-01-25T05:45:04;3.53;;;2.77;;
1054;SDS011;516;51.482;7.120;2024-01-25T05:47:30;8.90;;;3.40;;
1054;SDS011;516;51.482;7.120;2024-01-25T05:49:56;5.27;;;2.80;;
1054;SDS011;516;51.482;7.120;2024-01-25T05:52:22;4.33;;;2.60;;
1054;SDS011;516;51.482;7.120;2024-01-25T05:54:49;5.00;;;2.83;;
1054;SDS011;516;51.482;7.120;2024-01-25T05:57:15;6.93;;;3.27;;
1054;SDS011;516;51.482;7.120;2024-01-25T05:59:42;6.23;;;3.73;;
1054;SDS011;516;51.482;7.120;2024-01-25T06:02:07;5.47;;;3.00;;
1054;SDS011;516;51.482;7.120;2024-01-25T06:04:34;8.70;;;2.73;;
1054;SDS011;516;51.482;7.120;2024-01-25T06:07:00;5.30;;;2.80;;
1054;SDS011;516;51.482;7.120;2024-01-25T06:09:25;5.90;;;2.60;;
1054;SDS011;516;51.482;7.120;2024-01-25T06:11:51;6.27;;;2.67;;
1054;SDS011;516;51.482;7.120;2024-01-25T06:14:17;6.40;;;2.87;;
1054;SDS011;516;51.482;7.120;2024-01-25T06:16:43;5.40;;;2.50;;
1054;SDS011;516;51.482;7.120;2024-01-25T06:19:09;4.03;;;2.43;;
1054;SDS011;516;51.482;7.120;2024-01-25T06:21:35;9.97;;;2.90;;
1054;SDS011;516;51.482;7.120;2024-01-25T06:24:02;3.50;;;2.63;;
1054;SDS011;516;51.482;7.120;2024-01-25T06:26:29;7.03;;;2.93;;
1054;SDS011;516;51.482;7.120;2024-01-25T06:28:55;5.50;;;2.30;;
1054;SDS011;516;51.482;7.120;2024-01-25T06:31:22;3.93;;;2.77;;
1054;SDS011;516;51.482;7.120;2024-01-25T06:33:51;6.57;;;3.10;;
1054;SDS011;516;51.482;7.120;2024-01-25T06:36:20;4.20;;;2.40;;
1054;SDS011;516;51.482;7.120;2024-01-25T06:38:46;3.90;;;2.17;;
1054;SDS011;516;51.482;7.120;2024-01-25T06:41:12;4.87;;;2.17;;
1054;SDS011;516;51.482;7.120;2024-01-25T06:43:38;3.70;;;2.07;;
1054;SDS011;516;51.482;7.120;2024-01-25T06:46:05;4.37;;;2.40;;
1054;SDS011;516;51.482;7.120;2024-01-25T06:48:32;5.23;;;2.97;;
1054;SDS011;516;51.482;7.120;2024-01-25T06:50:58;4.93;;;2.00;;
1054;SDS011;516;51.482;7.120;2024-01-25T06:53:23;4.73;;;2.60;;
1054;SDS011;516;51.482;7.120;2024-01-25T06:55:49;4.03;;;2.23;;
1054;SDS011;516;51.482;7.120;2024-01-25T06:58:15;5.00;;;2.80;;
1054;SDS011;516;51.482;7.120;2024-01-25T07:00:41;5.73;;;2.67;;
1054;SDS011;516;51.482;7.120;2024-01-25T07:03:07;5.80;;;2.70;;
1054;SDS011;516;51.482;7.120;2024-01-25T07:05:33;7.67;;;3.87;;
1054;SDS011;516;51.482;7.120;2024-01-25T07:08:00;8.40;;;2.73;;
1054;SDS011;516;51.482;7.120;2024-01-25T07:10:27;6.20;;;2.70;;
1054;SDS011;516;51.482;7.120;2024-01-25T07:12:52;4.37;;;2.53;;
1054;SDS011;516;51.482;7.120;2024-01-25T07:15:19;5.80;;;2.67;;
1054;SDS011;516;51.482;7.120;2024-01-25T07:17:45;7.57;;;2.57;;
1054;SDS011;516;51.482;7.120;2024-01-25T07:20:11;7.60;;;3.03;;
1054;SDS011;516;51.482;7.120;2024-01-25T07:22:38;8.27;;;3.47;;
1054;SDS011;516;51.482;7.120;2024-01-25T07:25:05;4.20;;;2.87;;
1054;SDS011;516;51.482;7.120;2024-01-25T07:27:31;6.17;;;3.17;;
1054;SDS011;516;51.482;7.120;2024-01-25T07:29:56;6.90;;;3.23;;
1054;SDS011;516;51.482;7.120;2024-01-25T07:32:22;6.13;;;2.87;;
1054;SDS011;516;51.482;7.120;2024-01-25T07:34:49;4.70;;;3.03;;
1054;SDS011;516;51.482;7.120;2024-01-25T07:37:15;6.30;;;2.93;;
1054;SDS011;516;51.482;7.120;2024-01-25T07:39:43;5.40;;;2.60;;
1054;SDS011;516;51.482;7.120;2024-01-25T07:42:10;11.43;;;4.57;;
1054;SDS011;516;51.482;7.120;2024-01-25T07:44:36;12.47;;;4.57;;
1054;SDS011;516;51.482;7.120;2024-01-25T07:47:02;13.50;;;4.40;;
1054;SDS011;516;51.482;7.120;2024-01-25T07:49:28;18.90;;;4.27;;
1054;SDS011;516;51.482;7.120;2024-01-25T07:51:54;13.60;;;4.03;;
1054;SDS011;516;51.482;7.120;2024-01-25T07:54:21;15.10;;;3.73;;
1054;SDS011;516;51.482;7.120;2024-01-25T07:56:48;9.13;;;3.40;;
1054;SDS011;516;51.482;7.120;2024-01-25T07:59:14;10.40;;;3.60;;
1054;SDS011;516;51.482;7.120;2024-01-25T08:01:39;21.47;;;5.07;;
1054;SDS011;516;51.482;7.120;2024-01-25T08:04:05;14.80;;;3.60;;
1054;SDS011;516;51.482;7.120;2024-01-25T08:06:31;15.47;;;4.60;;
1054;SDS011;516;51.482;7.120;2024-01-25T08:08:57;7.10;;;3.30;;
1054;SDS011;516;51.482;7.120;2024-01-25T08:11:22;13.00;;;3.53;;
1054;SDS011;516;51.482;7.120;2024-01-25T08:13:49;7.33;;;3.47;;
1054;SDS011;516;51.482;7.120;2024-01-25T08:16:15;21.83;;;3.93;;
1054;SDS011;516;51.482;7.120;2024-01-25T08:18:50;20.53;;;4.90;;
1054;SDS011;516;51.482;7.120;2024-01-25T08:21:15;8.83;;;3.10;;
1054;SDS011;516;51.482;7.120;2024-01-25T08:23:41;10.73;;;3.60;;
1054;SDS011;516;51.482;7.120;2024-01-25T08:26:07;13.03;;;3.90;;
1054;SDS011;516;51.482;7.120;2024-01-25T08:28:35;8.33;;;4.33;;
1054;SDS011;516;51.482;7.120;2024-01-25T08:31:01;12.10;;;4.60;;
1054;SDS011;516;51.482;7.120;2024-01-25T08:33:27;8.00;;;3.63;;
1054;SDS011;516;51.482;7.120;2024-01-25T08:35:53;11.17;;;3.97;;
1054;SDS011;516;51.482;7.120;2024-01-25T08:38:18;7.53;;;2.90;;
1054;SDS011;516;51.482;7.120;2024-01-25T08:40:44;7.73;;;3.07;;
1054;SDS011;516;51.482;7.120;2024-01-25T08:43:10;10.33;;;3.37;;
1054;SDS011;516;51.482;7.120;2024-01-25T08:45:35;6.43;;;3.07;;
1054;SDS011;516;51.482;7.120;2024-01-25T08:48:02;10.13;;;3.47;;
1054;SDS011;516;51.482;7.120;2024-01-25T08:50:29;6.70;;;4.00;;
1054;SDS011;516;51.482;7.120;2024-01-25T08:52:54;9.87;;;3.67;;
1054;SDS011;516;51.482;7.120;2024-01-25T08:55:20;10.07;;;3.70;;
1054;SDS011;516;51.482;7.120;2024-01-25T08:57:46;10.47;;;3.50;;
1054;SDS011;516;51.482;7.120;2024-01-25T09:00:13;8.97;;;3.57;;
1054;SDS011;516;51.482;7.120;2024-01-25T09:02:39;6.80;;;3.43;;
1054;SDS011;516;51.482;7.120;2024-01-25T09:05:05;11.73;;;4.17;;
1054;SDS011;516;51.482;7.120;2024-01-25T09:07:31;8.50;;;4.17;;
1054;SDS011;516;51.482;7.120;2024-01-25T09:09:57;13.30;;;4.07;;
1054;SDS011;516;51.482;7.120;2024-01-25T09:12:22;9.00;;;3.40;;
1054;SDS011;516;51.482;7.120;2024-01-25T09:14:48;5.57;;;3.10;;
1054;SDS011;516;51.482;7.120;2024-01-25T09:17:14;10.30;;;3.97;;
1054;SDS011;516;51.482;7.120;2024-01-25T09:19:41;7.23;;;3.73;;
1054;SDS011;516;51.482;7.120;2024-01-25T09:22:07;4.30;;;3.40;;
1054;SDS011;516;51.482;7.120;2024-01-25T09:24:34;15.80;;;4.73;;
1054;SDS011;516;51.482;7.120;2024-01-25T09:27:01;4.93;;;2.80;;
1054;SDS011;516;51.482;7.120;2024-01-25T09:29:27;9.43;;;3.77;;
1054;SDS011;516;51.482;7.120;2024-01-25T09:31:53;7.80;;;4.20;;
1054;SDS011;516;51.482;7.120;2024-01-25T09:34:19;7.80;;;3.90;;
1054;SDS011;516;51.482;7.120;2024-01-25T09:36:46;6.77;;;3.23;;
1054;SDS011;516;51.482;7.120;2024-01-25T09:39:12;5.00;;;3.17;;
1054;SDS011;516;51.482;7.120;2024-01-25T09:41:39;7.17;;;3.00;;
1054;SDS011;516;51.482;7.120;2024-01-25T09:44:08;9.83;;;3.90;;
1054;SDS011;516;51.482;7.120;2024-01-25T09:46:34;7.60;;;3.93;;
1054;SDS011;516;51.482;7.120;2024-01-25T09:49:01;6.07;;;3.57;;
1054;SDS011;516;51.482;7.120;2024-01-25T09:51:28;6.00;;;3.80;;
1054;SDS011;516;51.482;7.120;2024-01-25T09:54:00;5.97;;;3.53;;
1054;SDS011;516;51.482;7.120;2024-01-25T09:56:26;4.83;;;3.60;;
1054;SDS011;516;51.482;7.120;2024-01-25T09:58:56;6.73;;;3.40;;
1054;SDS011;516;51.482;7.120;2024-01-25T10:01:22;8.10;;;3.63;;
1054;SDS011;516;51.482;7.120;2024-01-25T10:03:48;7.40;;;3.80;;
1054;SDS011;516;51.482;7.120;2024-01-25T10:06:14;9.27;;;5.00;;
1054;SDS011;516;51.482;7.120;2024-01-25T10:08:41;7.13;;;4.00;;
1054;SDS011;516;51.482;7.120;2024-01-25T10:11:07;8.83;;;4.20;;
1054;SDS011;516;51.482;7.120;2024-01-25T10:13:40;4.70;;;3.50;;
1054;SDS011;516;51.482;7.120;2024-01-25T10:16:16;5.60;;;3.60;;
1054;SDS011;516;51.482;7.120;2024-01-25T10:18:43;5.70;;;3.43;;
1054;SDS011;516;51.482;7.120;2024-01-25T10:21:10;6.03;;;3.70;;
1054;SDS011;516;51.482;7.120;2024-01-25T10:23:37;5.70;;;3.73;;
1054;SDS011;516;51.482;7.120;2024-01-25T10:26:07;4.67;;;3.50;;
1054;SDS011;516;51.482;7.120;2024-01-25T10:28:33;7.67;;;4.33;;
1054;SDS011;516;51.482;7.120;2024-01-25T10:31:00;7.93;;;4.20;;
1054;SDS011;516;51.482;7.120;2024-01-25T10:33:27;6.50;;;4.07;;
1054;SDS011;516;51.482;7.120;2024-01-25T10:35:57;7.63;;;3.83;;
1054;SDS011;516;51.482;7.120;2024-01-25T10:38:30;6.57;;;4.30;;
1054;SDS011;516;51.482;7.120;2024-01-25T10:40:58;7.50;;;3.97;;
1054;SDS011;516;51.482;7.120;2024-01-25T10:43:26;4.97;;;4.00;;
1054;SDS011;516;51.482;7.120;2024-01-25T10:45:52;6.90;;;4.63;;
1054;SDS011;516;51.482;7.120;2024-01-25T10:48:21;6.87;;;4.20;;
1054;SDS011;516;51.482;7.120;2024-01-25T10:50:47;9.13;;;5.30;;
1054;SDS011;516;51.482;7.120;2024-01-25T10:53:14;7.57;;;4.80;;
1054;SDS011;516;51.482;7.120;2024-01-25T10:55:41;9.83;;;4.77;;
1054;SDS011;516;51.482;7.120;2024-01-25T10:58:07;7.57;;;4.33;;
1054;SDS011;516;51.482;7.120;2024-01-25T11:00:36;7.37;;;4.70;;
1054;SDS011;516;51.482;7.120;2024-01-25T11:03:02;5.90;;;4.30;;
1054;SDS011;516;51.482;7.120;2024-01-25T11:05:29;8.23;;;4.50;;
1054;SDS011;516;51.482;7.120;2024-01-25T11:07:55;7.63;;;4.73;;
1054;SDS011;516;51.482;7.120;2024-01-25T11:10:22;7.60;;;5.17;;
1054;SDS011;516;51.482;7.120;2024-01-25T11:12:57;7.90;;;4.80;;
1054;SDS011;516;51.482;7.120;2024-01-25T11:15:33;6.60;;;4.03;;
1054;SDS011;516;51.482;7.120;2024-01-25T11:18:01;7.03;;;4.50;;
1054;SDS011;516;51.482;7.120;2024-01-25T11:20:29;8.10;;;4.67;;
1054;SDS011;516;51.482;7.120;2024-01-25T11:23:05;8.80;;;4.63;;
1054;SDS011;516;51.482;7.120;2024-01-25T11:25:33;8.70;;;5.07;;
1054;SDS011;516;51.482;7.120;2024-01-25T11:28:00;7.67;;;4.97;;
1054;SDS011;516;51.482;7.120;2024-01-25T11:30:28;8.90;;;3.90;;
1054;SDS011;516;51.482;7.120;2024-01-25T11:32:55;6.70;;;4.23;;
1054;SDS011;516;51.482;7.120;2024-01-25T11:35:21;6.23;;;4.13;;
1054;SDS011;516;51.482;7.120;2024-01-25T11:37:48;5.30;;;3.63;;
1054;SDS011;516;51.482;7.120;2024-01-25T11:40:15;7.27;;;5.43;;
1054;SDS011;516;51.482;7.120;2024-01-25T11:42:41;8.93;;;4.90;;
1054;SDS011;516;51.482;7.120;2024-01-25T11:45:09;5.90;;;3.90;;
1054;SDS011;516;51.482;7.120;2024-01-25T11:47:37;7.77;;;4.97;;
1054;SDS011;516;51.482;7.120;2024-01-25T11:50:07;5.10;;;4.07;;
1054;SDS011;516;51.482;7.120;2024-01-25T11:52:34;5.40;;;4.10;;
1054;SDS011;516;51.482;7.120;2024-01-25T11:55:04;8.10;;;4.67;;
1054;SDS011;516;51.482;7.120;2024-01-25T11:57:31;6.40;;;4.03;;
1054;SDS011;516;51.482;7.120;2024-01-25T12:00:00;5.73;;;4.77;;
1054;SDS011;516;51.482;7.120;2024-01-25T12:02:27;7.57;;;3.93;;
1054;SDS011;516;51.482;7.120;2024-01-25T12:04:53;8.43;;;4.50;;
1054;SDS011;516;51.482;7.120;2024-01-25T12:07:21;6.63;;;4.23;;
1054;SDS011;516;51.482;7.120;2024-01-25T12:10:01;7.20;;;4.30;;
1054;SDS011;516;51.482;7.120;2024-01-25T12:12:31;6.97;;;4.67;;
1054;SDS011;516;51.482;7.120;2024-01-25T12:14:58;6.97;;;4.33;;
1054;SDS011;516;51.482;7.120;2024-01-25T12:17:26;5.40;;;3.90;;
1054;SDS011;516;51.482;7.120;2024-01-25T12:19:54;7.23;;;3.53;;
1054;SDS011;516;51.482;7.120;2024-01-25T12:22:24;8.40;;;4.47;;
1054;SDS011;516;51.482;7.120;2024-01-25T12:24:58;7.70;;;4.63;;
1054;SDS011;516;51.482;7.120;2024-01-25T12:27:25;8.90;;;4.00;;
1054;SDS011;516;51.482;7.120;2024-01-25T12:29:52;6.90;;;4.90;;
1054;SDS011;516;51.482;7.120;2024-01-25T12:32:21;6.10;;;4.00;;
1054;SDS011;516;51.482;7.120;2024-01-25T12:34:57;5.50;;;3.93;;
1054;SDS011;516;51.482;7.120;2024-01-25T12:37:23;7.47;;;4.37;;
1054;SDS011;516;51.482;7.120;2024-01-25T12:39:53;5.00;;;3.60;;
1054;SDS011;516;51.482;7.120;2024-01-25T12:42:19;6.40;;;3.90;;
1054;SDS011;516;51.482;7.120;2024-01-25T12:44:45;6.60;;;3.60;;
1054;SDS011;516;51.482;7.120;2024-01-25T12:47:11;4.20;;;3.73;;
1054;SDS011;516;51.482;7.120;2024-01-25T12:49:40;4.90;;;4.13;;
1054;SDS011;516;51.482;7.120;2024-01-25T12:52:13;8.37;;;4.60;;
1054;SDS011;516;51.482;7.120;2024-01-25T12:54:40;8.70;;;4.60;;
1054;SDS011;516;51.482;7.120;2024-01-25T12:57:06;7.47;;;3.80;;
1054;SDS011;516;51.482;7.120;2024-01-25T12:59:35;8.73;;;3.90;;
1054;SDS011;516;51.482;7.120;2024-01-25T13:02:02;5.87;;;3.50;;
1054;SDS011;516;51.482;7.120;2024-01-25T13:04:28;8.53;;;4.30;;
1054;SDS011;516;51.482;7.120;2024-01-25T13:06:54;8.40;;;5.13;;
1054;SDS011;516;51.482;7.120;2024-01-25T13:09:23;5.63;;;3.63;;
1054;SDS011;516;51.482;7.120;2024-01-25T13:11:49;6.80;;;4.13;;
1054;SDS011;516;51.482;7.120;2024-01-25T13:14:17;5.90;;;4.63;;
1054;SDS011;516;51.482;7.120;2024-01-25T13:16:43;7.13;;;4.07;;
1054;SDS011;516;51.482;7.120;2024-01-25T13:19:08;7.57;;;4.50;;
1054;SDS011;516;51.482;7.120;2024-01-25T13:21:34;10.23;;;4.27;;
1054;SDS011;516;51.482;7.120;2024-01-25T13:24:00;4.50;;;3.60;;
1054;SDS011;516;51.482;7.120;2024-01-25T13:26:26;6.40;;;4.00;;
1054;SDS011;516;51.482;7.120;2024-01-25T13:28:52;4.93;;;3.67;;
1054;SDS011;516;51.482;7.120;2024-01-25T13:31:18;5.93;;;3.40;;
1054;SDS011;516;51.482;7.120;2024-01-25T13:33:43;9.00;;;4.30;;
1054;SDS011;516;51.482;7.120;2024-01-25T13:36:10;7.60;;;3.50;;
1054;SDS011;516;51.482;7.120;2024-01-25T13:38:38;7.80;;;3.50;;
1054;SDS011;516;51.482;7.120;2024-01-25T13:41:04;11.60;;;5.97;;
1054;SDS011;516;51.482;7.120;2024-01-25T13:43:30;9.67;;;4.50;;
1054;SDS011;516;51.482;7.120;2024-01-25T13:45:55;11.33;;;5.70;;
1054;SDS011;516;51.482;7.120;2024-01-25T13:48:21;11.77;;;10.57;;
1054;SDS011;516;51.482;7.120;2024-01-25T13:50:47;13.20;;;11.03;;
1054;SDS011;516;51.482;7.120;2024-01-25T13:53:13;15.63;;;14.03;;
1054;SDS011;516;51.482;7.120;2024-01-25T13:55:39;14.77;;;11.00;;
1054;SDS011;516;51.482;7.120;2024-01-25T13:58:04;12.10;;;10.83;;
1054;SDS011;516;51.482;7.120;2024-01-25T14:00:30;11.20;;;9.87;;
1054;SDS011;516;51.482;7.120;2024-01-25T14:02:55;10.50;;;9.50;;
1054;SDS011;516;51.482;7.120;2024-01-25T14:05:21;9.50;;;8.50;;
1054;SDS011;516;51.482;7.120;2024-01-25T14:07:47;10.13;;;8.60;;
1054;SDS011;516;51.482;7.120;2024-01-25T14:10:12;13.23;;;8.20;;
1054;SDS011;516;51.482;7.120;2024-01-25T14:12:38;9.27;;;7.33;;
1054;SDS011;516;51.482;7.120;2024-01-25T14:15:04;10.27;;;8.07;;
1054;SDS011;516;51.482;7.120;2024-01-25T14:17:30;9.73;;;7.67;;
1054;SDS011;516;51.482;7.120;2024-01-25T14:19:55;11.53;;;8.43;;
1054;SDS011;516;51.482;7.120;2024-01-25T14:22:21;13.13;;;9.00;;
1054;SDS011;516;51.482;7.120;2024-01-25T14:24:47;10.73;;;8.17;;
1054;SDS011;516;51.482;7.120;2024-01-25T14:27:13;11.60;;;7.23;;
1054;SDS011;516;51.482;7.120;2024-01-25T14:29:38;9.00;;;7.60;;
1054;SDS011;516;51.482;7.120;2024-01-25T14:32:04;12.70;;;6.90;;
1054;SDS011;516;51.482;7.120;2024-01-25T14:34:30;7.83;;;6.83;;
1054;SDS011;516;51.482;7.120;2024-01-25T14:36:55;8.80;;;6.77;;
1054;SDS011;516;51.482;7.120;2024-01-25T14:39:21;8.40;;;6.40;;
1054;SDS011;516;51.482;7.120;2024-01-25T14:41:47;8.67;;;6.40;;
1054;SDS011;516;51.482;7.120;2024-01-25T14:44:12;7.83;;;6.27;;
1054;SDS011;516;51.482;7.120;2024-01-25T14:46:38;8.83;;;6.00;;
1054;SDS011;516;51.482;7.120;2024-01-25T14:49:04;12.97;;;7.50;;
1054;SDS011;516;51.482;7.120;2024-01-25T14:51:30;10.10;;;6.20;;
1054;SDS011;516;51.482;7.120;2024-01-25T14:53:56;17.07;;;7.03;;
1054;SDS011;516;51.482;7.120;2024-01-25T14:56:21;7.00;;;5.60;;
1054;SDS011;516;51.482;7.120;2024-01-25T14:58:47;11.50;;;6.40;;
1054;SDS011;516;51.482;7.120;2024-01-25T15:01:13;8.10;;;6.27;;
1054;SDS011;516;51.482;7.120;2024-01-25T15:03:42;7.43;;;6.50;;
1054;SDS011;516;51.482;7.120;2024-01-25T15:06:09;8.13;;;5.20;;
1054;SDS011;516;51.482;7.120;2024-01-25T15:08:35;13.73;;;6.23;;
1054;SDS011;516;51.482;7.120;2024-01-25T15:11:00;8.10;;;5.63;;
1054;SDS011;516;51.482;7.120;2024-01-25T15:13:26;8.57;;;6.37;;
1054;SDS011;516;51.482;7.120;2024-01-25T15:15:52;8.70;;;5.80;;
1054;SDS011;516;51.482;7.120;2024-01-25T15:18:17;7.37;;;5.60;;
1054;SDS011;516;51.482;7.120;2024-01-25T15:20:43;6.70;;;5.13;;
1054;SDS011;516;51.482;7.120;2024-01-25T15:23:09;9.40;;;6.73;;
1054;SDS011;516;51.482;7.120;2024-01-25T15:25:34;8.00;;;5.30;;